sensor_id;sensor_type;location;lat;lon;timestamp;P1;durP1;ratioP1;P2;durP2;ratioP2
34695;SDS011;20918;51.138;17.370;2023-04-26T00:02:25;16.80;;;6.40;;
34695;SDS011;20918;51.138;17.370;2023-04-26T00:05:29;16.00;;;6.40;;
34695;SDS011;20918;51.138;17.370;2023-04-26T00:08:32;15.00;;;6.70;;
34695;SDS011;20918;51.138;17.370;2023-04-26T00:11:36;19.50;;;6.80;;
34695;SDS011;20918;51.138;17.370;2023-04-26T00:17:37;20.00;;;6.60;;
34695;SDS011;20918;51.138;17.370;2023-04-26T00:23:39;16.90;;;6.50;;
34695;SDS011;20918;51.138;17.370;2023-04-26T00:26:39;23.20;;;6.90;;
34695;SDS011;20918;51.138;17.370;2023-04-26T00:32:43;18.20;;;6.60;;
34695;SDS011;20918;51.138;17.370;2023-04-26T00:35:47;22.20;;;6.90;;
34695;SDS011;20918;51.138;17.370;2023-04-26T00:38:53;18.80;;;6.40;;
34695;SDS011;20918;51.138;17.370;2023-04-26T00:41:54;16.40;;;6.90;;
34695;SDS011;20918;51.138;17.370;2023-04-26T00:44:55;19.20;;;7.10;;
34695;SDS011;20918;51.138;17.370;2023-04-26T00:48:00;15.60;;;6.40;;
34695;SDS011;20918;51.138;17.370;2023-04-26T00:51:05;16.30;;;6.50;;
34695;SDS011;20918;51.138;17.370;2023-04-26T00:54:09;15.30;;;6.70;;
34695;SDS011;20918;51.138;17.370;2023-04-26T00:57:11;15.80;;;6.20;;
34695;SDS011;20918;51.138;17.370;2023-04-26T01:00:17;15.40;;;7.10;;
34695;SDS011;20918;51.138;17.370;2023-04-26T01:06:19;19.90;;;6.60;;
34695;SDS011;20918;51.138;17.370;2023-04-26T01:12:21;20.60;;;6.30;;
34695;SDS011;20918;51.138;17.370;2023-04-26T01:15:26;12.30;;;5.80;;
34695;SDS011;20918;51.138;17.370;2023-04-26T01:18:27;12.50;;;6.10;;
34695;SDS011;20918;51.138;17.370;2023-04-26T01:21:29;12.90;;;6.30;;
34695;SDS011;20918;51.138;17.370;2023-04-26T01:24:32;15.10;;;6.40;;
34695;SDS011;20918;51.138;17.370;2023-04-26T01:27:37;15.20;;;6.50;;
34695;SDS011;20918;51.138;17.370;2023-04-26T01:30:40;15.20;;;6.70;;
34695;SDS011;20918;51.138;17.370;2023-04-26T01:33:42;20.60;;;6.30;;
34695;SDS011;20918;51.138;17.370;2023-04-26T01:39:43;14.00;;;6.30;;
34695;SDS011;20918;51.138;17.370;2023-04-26T01:42:45;15.30;;;6.60;;
34695;SDS011;20918;51.138;17.370;2023-04-26T01:45:46;21.80;;;6.60;;
34695;SDS011;20918;51.138;17.370;2023-04-26T01:49:07;14.40;;;6.40;;
34695;SDS011;20918;51.138;17.370;2023-04-26T01:52:13;16.50;;;6.20;;
34695;SDS011;20918;51.138;17.370;2023-04-26T01:55:14;20.50;;;6.60;;
34695;SDS011;20918;51.138;17.370;2023-04-26T02:01:18;15.80;;;6.40;;
34695;SDS011;20918;51.138;17.370;2023-04-26T02:04:26;13.20;;;6.10;;
34695;SDS011;20918;51.138;17.370;2023-04-26T02:07:39;11.30;;;6.00;;
34695;SDS011;20918;51.138;17.370;2023-04-26T02:10:40;12.10;;;6.10;;
34695;SDS011;20918;51.138;17.370;2023-04-26T02:13:48;17.20;;;6.70;;
34695;SDS011;20918;51.138;17.370;2023-04-26T02:17:11;14.90;;;6.10;;
34695;SDS011;20918;51.138;17.370;2023-04-26T02:20:12;16.60;;;6.90;;
34695;SDS011;20918;51.138;17.370;2023-04-26T02:26:16;21.10;;;6.10;;
34695;SDS011;20918;51.138;17.370;2023-04-26T02:29:17;21.00;;;6.90;;
34695;SDS011;20918;51.138;17.370;2023-04-26T02:32:17;12.80;;;5.90;;
34695;SDS011;20918;51.138;17.370;2023-04-26T02:35:18;13.60;;;6.10;;
34695;SDS011;20918;51.138;17.370;2023-04-26T02:38:41;16.00;;;6.10;;
34695;SDS011;20918;51.138;17.370;2023-04-26T02:41:42;13.20;;;5.90;;
34695;SDS011;20918;51.138;17.370;2023-04-26T02:44:43;15.30;;;6.30;;
34695;SDS011;20918;51.138;17.370;2023-04-26T02:47:50;15.60;;;6.20;;
34695;SDS011;20918;51.138;17.370;2023-04-26T02:50:51;15.30;;;6.40;;
34695;SDS011;20918;51.138;17.370;2023-04-26T02:53:53;12.50;;;5.90;;
34695;SDS011;20918;51.138;17.370;2023-04-26T02:56:54;18.00;;;5.90;;
34695;SDS011;20918;51.138;17.370;2023-04-26T03:02:56;14.80;;;6.60;;
34695;SDS011;20918;51.138;17.370;2023-04-26T03:05:57;22.00;;;6.20;;
34695;SDS011;20918;51.138;17.370;2023-04-26T03:11:59;16.20;;;5.90;;
34695;SDS011;20918;51.138;17.370;2023-04-26T03:15:20;17.30;;;7.00;;
34695;SDS011;20918;51.138;17.370;2023-04-26T03:18:21;15.90;;;6.50;;
34695;SDS011;20918;51.138;17.370;2023-04-26T03:21:22;20.20;;;10.10;;
34695;SDS011;20918;51.138;17.370;2023-04-26T03:24:23;20.30;;;9.00;;
34695;SDS011;20918;51.138;17.370;2023-04-26T03:27:24;19.80;;;7.30;;
34695;SDS011;20918;51.138;17.370;2023-04-26T03:30:25;14.70;;;6.00;;
34695;SDS011;20918;51.138;17.370;2023-04-26T03:33:29;18.00;;;6.40;;
34695;SDS011;20918;51.138;17.370;2023-04-26T03:36:39;22.90;;;7.30;;
34695;SDS011;20918;51.138;17.370;2023-04-26T03:39:42;13.70;;;5.80;;
34695;SDS011;20918;51.138;17.370;2023-04-26T03:42:47;13.10;;;5.70;;
34695;SDS011;20918;51.138;17.370;2023-04-26T03:45:51;14.20;;;5.70;;
34695;SDS011;20918;51.138;17.370;2023-04-26T03:48:52;13.60;;;5.30;;
34695;SDS011;20918;51.138;17.370;2023-04-26T03:52:03;11.40;;;5.40;;
34695;SDS011;20918;51.138;17.370;2023-04-26T03:55:07;14.40;;;5.30;;
34695;SDS011;20918;51.138;17.370;2023-04-26T03:58:11;9.60;;;5.50;;
34695;SDS011;20918;51.138;17.370;2023-04-26T04:01:13;13.80;;;6.00;;
34695;SDS011;20918;51.138;17.370;2023-04-26T04:04:14;17.30;;;5.10;;
34695;SDS011;20918;51.138;17.370;2023-04-26T04:07:17;16.30;;;5.40;;
34695;SDS011;20918;51.138;17.370;2023-04-26T04:10:21;8.90;;;4.60;;
34695;SDS011;20918;51.138;17.370;2023-04-26T04:13:24;10.40;;;5.30;;
34695;SDS011;20918;51.138;17.370;2023-04-26T04:16:31;14.30;;;5.00;;
34695;SDS011;20918;51.138;17.370;2023-04-26T04:19:33;10.10;;;5.30;;
34695;SDS011;20918;51.138;17.370;2023-04-26T04:22:40;18.00;;;4.60;;
34695;SDS011;20918;51.138;17.370;2023-04-26T04:25:41;12.30;;;5.00;;
34695;SDS011;20918;51.138;17.370;2023-04-26T04:28:46;13.00;;;5.10;;
34695;SDS011;20918;51.138;17.370;2023-04-26T04:31:47;8.00;;;4.40;;
34695;SDS011;20918;51.138;17.370;2023-04-26T04:34:49;10.60;;;4.80;;
34695;SDS011;20918;51.138;17.370;2023-04-26T04:37:54;9.20;;;4.60;;
34695;SDS011;20918;51.138;17.370;2023-04-26T04:40:56;10.60;;;5.00;;
34695;SDS011;20918;51.138;17.370;2023-04-26T04:43:57;9.70;;;4.70;;
34695;SDS011;20918;51.138;17.370;2023-04-26T04:47:00;11.00;;;4.60;;
34695;SDS011;20918;51.138;17.370;2023-04-26T04:50:00;12.50;;;4.90;;
34695;SDS011;20918;51.138;17.370;2023-04-26T04:53:04;14.20;;;4.60;;
34695;SDS011;20918;51.138;17.370;2023-04-26T04:56:04;16.00;;;5.20;;
34695;SDS011;20918;51.138;17.370;2023-04-26T04:59:08;9.60;;;4.30;;
34695;SDS011;20918;51.138;17.370;2023-04-26T05:02:10;9.30;;;4.40;;
34695;SDS011;20918;51.138;17.370;2023-04-26T05:05:10;7.80;;;3.80;;
34695;SDS011;20918;51.138;17.370;2023-04-26T05:08:11;11.30;;;4.10;;
34695;SDS011;20918;51.138;17.370;2023-04-26T05:11:12;14.60;;;4.30;;
34695;SDS011;20918;51.138;17.370;2023-04-26T05:14:15;9.60;;;3.90;;
34695;SDS011;20918;51.138;17.370;2023-04-26T05:17:16;10.20;;;3.40;;
34695;SDS011;20918;51.138;17.370;2023-04-26T05:20:19;6.60;;;3.70;;
34695;SDS011;20918;51.138;17.370;2023-04-26T05:23:24;10.20;;;4.10;;
34695;SDS011;20918;51.138;17.370;2023-04-26T05:26:25;7.90;;;3.00;;
34695;SDS011;20918;51.138;17.370;2023-04-26T05:29:30;11.10;;;3.20;;
34695;SDS011;20918;51.138;17.370;2023-04-26T05:36:01;6.00;;;3.20;;
34695;SDS011;20918;51.138;17.370;2023-04-26T05:39:02;12.10;;;3.40;;
34695;SDS011;20918;51.138;17.370;2023-04-26T05:42:05;7.90;;;3.10;;
34695;SDS011;20918;51.138;17.370;2023-04-26T05:45:06;12.60;;;3.20;;
34695;SDS011;20918;51.138;17.370;2023-04-26T05:48:07;6.80;;;3.40;;
34695;SDS011;20918;51.138;17.370;2023-04-26T05:51:09;8.90;;;3.10;;
34695;SDS011;20918;51.138;17.370;2023-04-26T05:54:10;11.90;;;2.70;;
34695;SDS011;20918;51.138;17.370;2023-04-26T05:57:12;10.10;;;2.80;;
34695;SDS011;20918;51.138;17.370;2023-04-26T06:00:21;7.50;;;2.50;;
34695;SDS011;20918;51.138;17.370;2023-04-26T06:03:23;7.50;;;2.70;;
34695;SDS011;20918;51.138;17.370;2023-04-26T06:06:24;8.80;;;2.20;;
34695;SDS011;20918;51.138;17.370;2023-04-26T06:09:26;8.40;;;2.80;;
34695;SDS011;20918;51.138;17.370;2023-04-26T06:15:28;7.30;;;2.20;;
34695;SDS011;20918;51.138;17.370;2023-04-26T06:18:31;5.70;;;2.10;;
34695;SDS011;20918;51.138;17.370;2023-04-26T06:21:31;8.70;;;2.40;;
34695;SDS011;20918;51.138;17.370;2023-04-26T06:24:32;5.70;;;2.00;;
34695;SDS011;20918;51.138;17.370;2023-04-26T06:27:34;7.70;;;2.50;;
34695;SDS011;20918;51.138;17.370;2023-04-26T06:30:45;9.00;;;2.50;;
34695;SDS011;20918;51.138;17.370;2023-04-26T06:33:49;10.30;;;2.90;;
34695;SDS011;20918;51.138;17.370;2023-04-26T06:36:50;7.90;;;2.60;;
34695;SDS011;20918;51.138;17.370;2023-04-26T06:39:51;16.20;;;2.30;;
34695;SDS011;20918;51.138;17.370;2023-04-26T06:42:53;9.30;;;2.60;;
34695;SDS011;20918;51.138;17.370;2023-04-26T06:46:13;7.50;;;2.20;;
34695;SDS011;20918;51.138;17.370;2023-04-26T06:49:17;11.50;;;2.50;;
34695;SDS011;20918;51.138;17.370;2023-04-26T06:52:18;7.50;;;2.20;;
34695;SDS011;20918;51.138;17.370;2023-04-26T06:55:18;20.90;;;3.10;;
34695;SDS011;20918;51.138;17.370;2023-04-26T06:58:19;9.90;;;2.20;;
34695;SDS011;20918;51.138;17.370;2023-04-26T07:01:20;7.80;;;2.50;;
34695;SDS011;20918;51.138;17.370;2023-04-26T07:07:25;8.50;;;2.40;;
34695;SDS011;20918;51.138;17.370;2023-04-26T07:10:26;14.10;;;2.40;;
34695;SDS011;20918;51.138;17.370;2023-04-26T07:13:27;8.00;;;2.20;;
34695;SDS011;20918;51.138;17.370;2023-04-26T07:16:28;9.00;;;2.10;;
34695;SDS011;20918;51.138;17.370;2023-04-26T07:19:29;6.70;;;1.90;;
34695;SDS011;20918;51.138;17.370;2023-04-26T07:22:30;9.40;;;3.60;;
34695;SDS011;20918;51.138;17.370;2023-04-26T07:25:31;6.40;;;2.00;;
34695;SDS011;20918;51.138;17.370;2023-04-26T07:28:33;5.60;;;1.80;;
34695;SDS011;20918;51.138;17.370;2023-04-26T07:31:34;6.60;;;1.80;;
34695;SDS011;20918;51.138;17.370;2023-04-26T07:34:35;6.80;;;2.00;;
34695;SDS011;20918;51.138;17.370;2023-04-26T07:37:36;9.10;;;2.30;;
34695;SDS011;20918;51.138;17.370;2023-04-26T07:43:37;9.10;;;2.50;;
34695;SDS011;20918;51.138;17.370;2023-04-26T07:46:44;5.20;;;1.50;;
34695;SDS011;20918;51.138;17.370;2023-04-26T07:49:51;6.60;;;1.80;;
34695;SDS011;20918;51.138;17.370;2023-04-26T07:52:52;7.00;;;2.30;;
34695;SDS011;20918;51.138;17.370;2023-04-26T07:55:53;8.10;;;2.00;;
34695;SDS011;20918;51.138;17.370;2023-04-26T07:59:01;7.70;;;1.60;;
34695;SDS011;20918;51.138;17.370;2023-04-26T08:05:14;9.50;;;2.20;;
34695;SDS011;20918;51.138;17.370;2023-04-26T08:08:15;5.70;;;1.70;;
34695;SDS011;20918;51.138;17.370;2023-04-26T08:11:19;8.90;;;1.90;;
34695;SDS011;20918;51.138;17.370;2023-04-26T08:14:22;8.90;;;2.10;;
34695;SDS011;20918;51.138;17.370;2023-04-26T08:17:23;6.50;;;2.00;;
34695;SDS011;20918;51.138;17.370;2023-04-26T08:23:34;7.00;;;2.10;;
34695;SDS011;20918;51.138;17.370;2023-04-26T08:26:35;8.90;;;2.00;;
34695;SDS011;20918;51.138;17.370;2023-04-26T08:32:37;4.90;;;1.50;;
34695;SDS011;20918;51.138;17.370;2023-04-26T08:38:38;8.50;;;1.90;;
34695;SDS011;20918;51.138;17.370;2023-04-26T08:41:42;9.30;;;2.10;;
34695;SDS011;20918;51.138;17.370;2023-04-26T08:44:48;8.90;;;2.20;;
34695;SDS011;20918;51.138;17.370;2023-04-26T08:48:09;6.40;;;1.90;;
34695;SDS011;20918;51.138;17.370;2023-04-26T08:51:13;4.60;;;2.00;;
34695;SDS011;20918;51.138;17.370;2023-04-26T08:54:16;9.00;;;1.90;;
34695;SDS011;20918;51.138;17.370;2023-04-26T08:57:20;6.30;;;1.90;;
34695;SDS011;20918;51.138;17.370;2023-04-26T09:00:22;4.30;;;1.60;;
34695;SDS011;20918;51.138;17.370;2023-04-26T09:03:24;12.60;;;1.70;;
34695;SDS011;20918;51.138;17.370;2023-04-26T09:06:29;8.60;;;2.10;;
34695;SDS011;20918;51.138;17.370;2023-04-26T09:09:33;6.40;;;1.40;;
34695;SDS011;20918;51.138;17.370;2023-04-26T09:12:38;5.40;;;1.80;;
34695;SDS011;20918;51.138;17.370;2023-04-26T09:15:39;6.80;;;1.60;;
34695;SDS011;20918;51.138;17.370;2023-04-26T09:18:51;3.60;;;1.30;;
34695;SDS011;20918;51.138;17.370;2023-04-26T09:21:54;6.90;;;1.80;;
34695;SDS011;20918;51.138;17.370;2023-04-26T09:24:55;7.70;;;1.80;;
34695;SDS011;20918;51.138;17.370;2023-04-26T09:27:56;4.70;;;1.40;;
34695;SDS011;20918;51.138;17.370;2023-04-26T09:30:57;7.10;;;1.80;;
34695;SDS011;20918;51.138;17.370;2023-04-26T09:37:02;4.30;;;1.40;;
34695;SDS011;20918;51.138;17.370;2023-04-26T09:43:12;4.20;;;1.70;;
34695;SDS011;20918;51.138;17.370;2023-04-26T09:46:20;5.90;;;1.80;;
34695;SDS011;20918;51.138;17.370;2023-04-26T09:49:27;7.40;;;2.00;;
34695;SDS011;20918;51.138;17.370;2023-04-26T09:52:41;5.40;;;1.40;;
34695;SDS011;20918;51.138;17.370;2023-04-26T09:55:44;6.50;;;1.50;;
34695;SDS011;20918;51.138;17.370;2023-04-26T10:01:47;4.80;;;1.50;;
34695;SDS011;20918;51.138;17.370;2023-04-26T10:04:49;4.70;;;1.70;;
34695;SDS011;20918;51.138;17.370;2023-04-26T10:07:51;5.70;;;2.10;;
34695;SDS011;20918;51.138;17.370;2023-04-26T10:13:52;6.20;;;1.70;;
34695;SDS011;20918;51.138;17.370;2023-04-26T10:16:54;6.60;;;1.90;;
34695;SDS011;20918;51.138;17.370;2023-04-26T10:19:56;5.00;;;1.50;;
34695;SDS011;20918;51.138;17.370;2023-04-26T10:23:01;6.50;;;1.60;;
34695;SDS011;20918;51.138;17.370;2023-04-26T10:26:44;6.10;;;1.60;;
34695;SDS011;20918;51.138;17.370;2023-04-26T10:36:05;3.60;;;1.60;;
34695;SDS011;20918;51.138;17.370;2023-04-26T10:39:18;5.50;;;1.90;;
34695;SDS011;20918;51.138;17.370;2023-04-26T10:42:25;5.20;;;1.70;;
34695;SDS011;20918;51.138;17.370;2023-04-26T10:45:30;5.50;;;1.40;;
34695;SDS011;20918;51.138;17.370;2023-04-26T10:51:31;5.60;;;2.20;;
34695;SDS011;20918;51.138;17.370;2023-04-26T10:57:46;6.30;;;1.90;;
34695;SDS011;20918;51.138;17.370;2023-04-26T11:01:06;11.50;;;2.00;;
34695;SDS011;20918;51.138;17.370;2023-04-26T11:04:14;6.50;;;1.50;;
34695;SDS011;20918;51.138;17.370;2023-04-26T11:07:15;7.00;;;2.00;;
34695;SDS011;20918;51.138;17.370;2023-04-26T11:10:38;7.50;;;1.90;;
34695;SDS011;20918;51.138;17.370;2023-04-26T11:13:42;4.80;;;1.50;;
34695;SDS011;20918;51.138;17.370;2023-04-26T11:16:43;5.00;;;1.50;;
34695;SDS011;20918;51.138;17.370;2023-04-26T11:19:45;9.10;;;1.90;;
34695;SDS011;20918;51.138;17.370;2023-04-26T11:22:47;7.50;;;1.50;;
34695;SDS011;20918;51.138;17.370;2023-04-26T11:25:53;5.80;;;2.10;;
34695;SDS011;20918;51.138;17.370;2023-04-26T11:29:17;3.70;;;1.70;;
34695;SDS011;20918;51.138;17.370;2023-04-26T11:36:37;4.40;;;1.30;;
34695;SDS011;20918;51.138;17.370;2023-04-26T11:39:43;6.90;;;1.40;;
34695;SDS011;20918;51.138;17.370;2023-04-26T11:42:45;3.60;;;1.60;;
34695;SDS011;20918;51.138;17.370;2023-04-26T11:45:57;7.10;;;1.70;;
34695;SDS011;20918;51.138;17.370;2023-04-26T11:48:59;5.40;;;1.80;;
34695;SDS011;20918;51.138;17.370;2023-04-26T11:52:01;6.60;;;1.60;;
34695;SDS011;20918;51.138;17.370;2023-04-26T11:55:12;4.10;;;1.70;;
34695;SDS011;20918;51.138;17.370;2023-04-26T11:58:16;6.00;;;1.70;;
34695;SDS011;20918;51.138;17.370;2023-04-26T12:01:38;4.00;;;1.40;;
34695;SDS011;20918;51.138;17.370;2023-04-26T12:07:40;5.60;;;1.60;;
34695;SDS011;20918;51.138;17.370;2023-04-26T12:13:59;5.80;;;1.80;;
34695;SDS011;20918;51.138;17.370;2023-04-26T12:17:01;8.40;;;2.70;;
34695;SDS011;20918;51.138;17.370;2023-04-26T12:20:09;3.80;;;1.70;;
34695;SDS011;20918;51.138;17.370;2023-04-26T12:23:14;3.80;;;1.30;;
34695;SDS011;20918;51.138;17.370;2023-04-26T12:26:16;3.20;;;1.40;;
34695;SDS011;20918;51.138;17.370;2023-04-26T12:29:19;5.90;;;1.60;;
34695;SDS011;20918;51.138;17.370;2023-04-26T12:32:23;5.40;;;1.70;;
34695;SDS011;20918;51.138;17.370;2023-04-26T12:35:27;5.30;;;1.70;;
34695;SDS011;20918;51.138;17.370;2023-04-26T12:38:28;3.50;;;2.20;;
34695;SDS011;20918;51.138;17.370;2023-04-26T12:45:44;5.00;;;1.50;;
34695;SDS011;20918;51.138;17.370;2023-04-26T12:51:51;8.20;;;2.20;;
34695;SDS011;20918;51.138;17.370;2023-04-26T12:54:52;6.90;;;2.00;;
34695;SDS011;20918;51.138;17.370;2023-04-26T12:57:56;6.10;;;2.20;;
34695;SDS011;20918;51.138;17.370;2023-04-26T13:00:56;3.20;;;1.30;;
34695;SDS011;20918;51.138;17.370;2023-04-26T13:06:59;4.50;;;2.00;;
34695;SDS011;20918;51.138;17.370;2023-04-26T13:13:01;4.70;;;1.50;;
34695;SDS011;20918;51.138;17.370;2023-04-26T13:19:03;7.90;;;2.70;;
34695;SDS011;20918;51.138;17.370;2023-04-26T13:22:03;6.40;;;1.60;;
34695;SDS011;20918;51.138;17.370;2023-04-26T13:25:07;10.30;;;3.40;;
34695;SDS011;20918;51.138;17.370;2023-04-26T13:28:08;10.50;;;2.90;;
34695;SDS011;20918;51.138;17.370;2023-04-26T13:31:09;9.00;;;2.90;;
34695;SDS011;20918;51.138;17.370;2023-04-26T13:34:11;9.70;;;2.20;;
34695;SDS011;20918;51.138;17.370;2023-04-26T13:37:12;5.30;;;2.20;;
34695;SDS011;20918;51.138;17.370;2023-04-26T13:40:13;7.40;;;3.10;;
34695;SDS011;20918;51.138;17.370;2023-04-26T13:43:14;8.40;;;2.70;;
34695;SDS011;20918;51.138;17.370;2023-04-26T13:46:15;3.30;;;1.90;;
34695;SDS011;20918;51.138;17.370;2023-04-26T13:49:16;6.60;;;2.10;;
34695;SDS011;20918;51.138;17.370;2023-04-26T13:52:17;6.00;;;2.10;;
34695;SDS011;20918;51.138;17.370;2023-04-26T13:58:18;5.80;;;2.40;;
34695;SDS011;20918;51.138;17.370;2023-04-26T14:01:20;7.00;;;2.50;;
34695;SDS011;20918;51.138;17.370;2023-04-26T14:04:21;6.50;;;2.10;;
34695;SDS011;20918;51.138;17.370;2023-04-26T14:07:22;4.80;;;2.30;;
34695;SDS011;20918;51.138;17.370;2023-04-26T14:10:23;6.60;;;2.30;;
34695;SDS011;20918;51.138;17.370;2023-04-26T14:13:23;3.20;;;1.50;;
34695;SDS011;20918;51.138;17.370;2023-04-26T14:19:26;5.10;;;2.10;;
34695;SDS011;20918;51.138;17.370;2023-04-26T14:22:27;7.70;;;2.50;;
34695;SDS011;20918;51.138;17.370;2023-04-26T14:25:27;5.70;;;2.20;;
34695;SDS011;20918;51.138;17.370;2023-04-26T14:28:28;19.80;;;5.90;;
34695;SDS011;20918;51.138;17.370;2023-04-26T14:34:33;8.30;;;2.80;;
34695;SDS011;20918;51.138;17.370;2023-04-26T14:37:38;5.10;;;2.10;;
34695;SDS011;20918;51.138;17.370;2023-04-26T14:40:47;5.10;;;2.40;;
34695;SDS011;20918;51.138;17.370;2023-04-26T14:43:48;4.70;;;1.60;;
34695;SDS011;20918;51.138;17.370;2023-04-26T14:46:50;5.00;;;2.00;;
34695;SDS011;20918;51.138;17.370;2023-04-26T14:49:53;4.00;;;1.50;;
34695;SDS011;20918;51.138;17.370;2023-04-26T14:55:58;5.80;;;1.70;;
34695;SDS011;20918;51.138;17.370;2023-04-26T14:59:00;3.40;;;1.70;;
34695;SDS011;20918;51.138;17.370;2023-04-26T15:02:02;11.50;;;4.20;;
34695;SDS011;20918;51.138;17.370;2023-04-26T15:05:04;7.40;;;3.80;;
34695;SDS011;20918;51.138;17.370;2023-04-26T15:08:07;7.40;;;2.20;;
34695;SDS011;20918;51.138;17.370;2023-04-26T15:11:07;5.20;;;1.60;;
34695;SDS011;20918;51.138;17.370;2023-04-26T15:14:09;6.90;;;3.00;;
34695;SDS011;20918;51.138;17.370;2023-04-26T15:17:10;8.30;;;3.10;;
34695;SDS011;20918;51.138;17.370;2023-04-26T15:20:11;6.40;;;2.50;;
34695;SDS011;20918;51.138;17.370;2023-04-26T15:23:13;5.00;;;2.20;;
34695;SDS011;20918;51.138;17.370;2023-04-26T15:26:14;8.60;;;2.70;;
34695;SDS011;20918;51.138;17.370;2023-04-26T15:29:15;8.90;;;4.50;;
34695;SDS011;20918;51.138;17.370;2023-04-26T15:35:31;8.30;;;3.10;;
34695;SDS011;20918;51.138;17.370;2023-04-26T15:38:44;7.60;;;2.90;;
34695;SDS011;20918;51.138;17.370;2023-04-26T15:41:47;12.40;;;7.00;;
34695;SDS011;20918;51.138;17.370;2023-04-26T15:44:52;11.80;;;6.40;;
34695;SDS011;20918;51.138;17.370;2023-04-26T15:48:04;12.80;;;7.20;;
34695;SDS011;20918;51.138;17.370;2023-04-26T15:51:05;13.10;;;7.00;;
34695;SDS011;20918;51.138;17.370;2023-04-26T15:54:06;11.00;;;3.10;;
34695;SDS011;20918;51.138;17.370;2023-04-26T15:57:11;8.80;;;4.60;;
34695;SDS011;20918;51.138;17.370;2023-04-26T16:00:12;6.60;;;3.00;;
34695;SDS011;20918;51.138;17.370;2023-04-26T16:03:16;8.00;;;4.50;;
34695;SDS011;20918;51.138;17.370;2023-04-26T16:06:17;4.10;;;2.10;;
34695;SDS011;20918;51.138;17.370;2023-04-26T16:09:21;6.20;;;2.10;;
34695;SDS011;20918;51.138;17.370;2023-04-26T16:12:25;6.60;;;2.30;;
34695;SDS011;20918;51.138;17.370;2023-04-26T16:15:26;4.60;;;1.90;;
34695;SDS011;20918;51.138;17.370;2023-04-26T16:18:27;5.00;;;2.40;;
34695;SDS011;20918;51.138;17.370;2023-04-26T16:21:32;6.20;;;3.10;;
34695;SDS011;20918;51.138;17.370;2023-04-26T16:24:33;10.40;;;4.10;;
34695;SDS011;20918;51.138;17.370;2023-04-26T16:27:35;8.80;;;3.60;;
34695;SDS011;20918;51.138;17.370;2023-04-26T16:30:36;9.50;;;3.60;;
34695;SDS011;20918;51.138;17.370;2023-04-26T16:33:38;10.30;;;3.10;;
34695;SDS011;20918;51.138;17.370;2023-04-26T16:36:39;11.60;;;4.30;;
34695;SDS011;20918;51.138;17.370;2023-04-26T16:39:42;14.00;;;6.20;;
34695;SDS011;20918;51.138;17.370;2023-04-26T16:42:43;15.10;;;6.60;;
34695;SDS011;20918;51.138;17.370;2023-04-26T16:48:45;6.70;;;3.20;;
34695;SDS011;20918;51.138;17.370;2023-04-26T16:51:46;16.90;;;6.00;;
34695;SDS011;20918;51.138;17.370;2023-04-26T16:54:52;11.60;;;3.80;;
34695;SDS011;20918;51.138;17.370;2023-04-26T17:00:54;13.10;;;3.50;;
34695;SDS011;20918;51.138;17.370;2023-04-26T17:03:55;18.80;;;9.10;;
34695;SDS011;20918;51.138;17.370;2023-04-26T17:10:07;23.50;;;7.40;;
34695;SDS011;20918;51.138;17.370;2023-04-26T17:13:08;18.00;;;7.20;;
34695;SDS011;20918;51.138;17.370;2023-04-26T17:16:11;14.10;;;6.80;;
34695;SDS011;20918;51.138;17.370;2023-04-26T17:22:13;9.40;;;4.60;;
34695;SDS011;20918;51.138;17.370;2023-04-26T17:28:15;18.30;;;8.90;;
34695;SDS011;20918;51.138;17.370;2023-04-26T17:31:18;8.30;;;3.60;;
34695;SDS011;20918;51.138;17.370;2023-04-26T17:34:19;4.30;;;2.20;;
34695;SDS011;20918;51.138;17.370;2023-04-26T17:37:20;4.60;;;2.00;;
34695;SDS011;20918;51.138;17.370;2023-04-26T17:40:20;4.80;;;2.00;;
34695;SDS011;20918;51.138;17.370;2023-04-26T17:46:22;9.10;;;2.80;;
34695;SDS011;20918;51.138;17.370;2023-04-26T17:52:26;8.40;;;3.40;;
34695;SDS011;20918;51.138;17.370;2023-04-26T17:55:27;6.80;;;2.80;;
34695;SDS011;20918;51.138;17.370;2023-04-26T17:58:28;6.20;;;3.60;;
34695;SDS011;20918;51.138;17.370;2023-04-26T18:01:29;6.10;;;2.80;;
34695;SDS011;20918;51.138;17.370;2023-04-26T18:04:29;4.70;;;2.50;;
34695;SDS011;20918;51.138;17.370;2023-04-26T18:07:33;10.70;;;3.70;;
34695;SDS011;20918;51.138;17.370;2023-04-26T18:10:34;14.30;;;5.40;;
34695;SDS011;20918;51.138;17.370;2023-04-26T18:16:52;13.70;;;5.40;;
34695;SDS011;20918;51.138;17.370;2023-04-26T18:20:02;11.70;;;4.80;;
34695;SDS011;20918;51.138;17.370;2023-04-26T18:23:03;11.20;;;4.80;;
34695;SDS011;20918;51.138;17.370;2023-04-26T18:26:04;19.60;;;9.10;;
34695;SDS011;20918;51.138;17.370;2023-04-26T18:29:05;21.70;;;10.50;;
34695;SDS011;20918;51.138;17.370;2023-04-26T18:32:06;21.30;;;8.80;;
34695;SDS011;20918;51.138;17.370;2023-04-26T18:35:06;17.30;;;9.40;;
34695;SDS011;20918;51.138;17.370;2023-04-26T18:38:09;13.90;;;6.20;;
34695;SDS011;20918;51.138;17.370;2023-04-26T18:41:09;9.70;;;4.70;;
34695;SDS011;20918;51.138;17.370;2023-04-26T18:44:11;7.40;;;4.00;;
34695;SDS011;20918;51.138;17.370;2023-04-26T18:47:14;8.00;;;3.40;;
34695;SDS011;20918;51.138;17.370;2023-04-26T18:50:15;8.60;;;3.70;;
34695;SDS011;20918;51.138;17.370;2023-04-26T18:53:16;7.70;;;3.70;;
34695;SDS011;20918;51.138;17.370;2023-04-26T18:59:17;9.70;;;5.50;;
34695;SDS011;20918;51.138;17.370;2023-04-26T19:02:19;11.10;;;5.40;;
34695;SDS011;20918;51.138;17.370;2023-04-26T19:05:19;12.00;;;4.60;;
34695;SDS011;20918;51.138;17.370;2023-04-26T19:08:20;10.60;;;4.80;;
34695;SDS011;20918;51.138;17.370;2023-04-26T19:11:24;10.60;;;4.80;;
34695;SDS011;20918;51.138;17.370;2023-04-26T19:14:26;11.90;;;4.60;;
34695;SDS011;20918;51.138;17.370;2023-04-26T19:20:28;22.00;;;9.90;;
34695;SDS011;20918;51.138;17.370;2023-04-26T19:23:30;33.80;;;13.10;;
34695;SDS011;20918;51.138;17.370;2023-04-26T19:26:31;43.50;;;14.90;;
34695;SDS011;20918;51.138;17.370;2023-04-26T19:29:36;32.90;;;14.10;;
34695;SDS011;20918;51.138;17.370;2023-04-26T19:32:37;18.00;;;8.10;;
34695;SDS011;20918;51.138;17.370;2023-04-26T19:35:43;17.70;;;8.70;;
34695;SDS011;20918;51.138;17.370;2023-04-26T19:38:50;17.00;;;7.40;;
34695;SDS011;20918;51.138;17.370;2023-04-26T19:42:21;16.40;;;7.00;;
34695;SDS011;20918;51.138;17.370;2023-04-26T19:45:24;16.00;;;7.50;;
34695;SDS011;20918;51.138;17.370;2023-04-26T19:48:25;15.90;;;7.30;;
34695;SDS011;20918;51.138;17.370;2023-04-26T19:51:34;16.60;;;6.90;;
34695;SDS011;20918;51.138;17.370;2023-04-26T19:54:35;16.50;;;8.00;;
34695;SDS011;20918;51.138;17.370;2023-04-26T19:57:36;43.00;;;14.30;;
34695;SDS011;20918;51.138;17.370;2023-04-26T20:00:44;40.80;;;15.60;;
34695;SDS011;20918;51.138;17.370;2023-04-26T20:03:45;39.30;;;15.00;;
34695;SDS011;20918;51.138;17.370;2023-04-26T20:09:47;28.10;;;12.40;;
34695;SDS011;20918;51.138;17.370;2023-04-26T20:15:49;27.20;;;11.00;;
34695;SDS011;20918;51.138;17.370;2023-04-26T20:18:57;28.20;;;12.20;;
34695;SDS011;20918;51.138;17.370;2023-04-26T20:25:01;24.60;;;10.70;;
34695;SDS011;20918;51.138;17.370;2023-04-26T20:28:06;20.90;;;10.30;;
34695;SDS011;20918;51.138;17.370;2023-04-26T20:31:09;25.20;;;10.70;;
34695;SDS011;20918;51.138;17.370;2023-04-26T20:34:13;29.60;;;10.60;;
34695;SDS011;20918;51.138;17.370;2023-04-26T20:37:14;25.60;;;10.80;;
34695;SDS011;20918;51.138;17.370;2023-04-26T20:40:15;26.50;;;12.20;;
34695;SDS011;20918;51.138;17.370;2023-04-26T20:43:18;29.70;;;12.50;;